Time;durP1;ratioP1;P1;durP2;ratioP2;P2;SDS_P1;SDS_P2;PMS_P1;PMS_P2;Temp;Humidity;BMP_temperature;BMP_pressure;BME280_temperature;BME280_humidity;BME280_pressure;Samples;Min_cycle;Max_cycle;Signal;HPM_P1;HPM_P2
2022/08/06 06:09:57;;;;;;;10.65;2.20;;;;;;;19.24;57.37;97278.00;2091879;27;20532;-71
2022/08/06 06:11:07;;;;;;;3.47;1.70;;;;;;;19.40;57.21;97299.81;2084000;28;20197;-71
2022/08/06 06:12:11;;;;;;;7.18;2.20;;;;;;;19.24;57.61;97307.94;2080674;28;20243;-71
2022/08/06 06:13:20;;;;;;;5.32;2.30;;;;;;;19.28;57.83;97303.28;2076868;28;20655;-70
2022/08/06 06:14:41;;;;;;;4.20;2.05;;;;;;;19.20;57.50;97310.94;2075903;28;20653;-71
2022/08/06 06:15:53;;;;;;;6.57;2.40;;;;;;;18.84;58.71;97297.44;2077355;28;20231;-71
2022/08/06 06:17:44;;;;;;;6.28;2.15;;;;;;;19.00;58.96;97307.84;2074621;28;20720;-71
2022/08/06 06:42:13;;;;;;;8.80;2.28;;;;;;;19.95;55.51;97320.69;2104016;27;20554;-69
2022/08/06 06:43:48;;;;;;;5.00;1.85;;;;;;;20.21;54.84;97326.75;2078146;28;20205;-70
2022/08/06 06:45:00;;;;;;;8.27;1.92;;;;;;;20.11;54.86;97324.88;2078355;28;20193;-70
2022/08/06 06:46:32;;;;;;;9.45;1.80;;;;;;;20.29;54.29;97328.84;2078128;28;20208;-70
2022/08/06 06:47:49;;;;;;;4.85;2.10;;;;;;;20.26;54.16;97328.22;2080267;28;20221;-70
2022/08/06 06:49:06;;;;;;;5.40;1.60;;;;;;;20.30;54.14;97329.69;2082758;28;20224;-69
2022/08/06 06:50:18;;;;;;;4.93;1.40;;;;;;;20.60;53.36;97323.09;2084675;28;20223;-69
2022/08/06 06:51:33;;;;;;;2.70;1.40;;;;;;;20.92;52.75;97333.94;2084382;28;20249;-69
2022/08/06 06:52:56;;;;;;;7.68;1.58;;;;;;;21.06;52.57;97334.72;2082261;28;20312;-69
2022/08/06 06:53:58;;;;;;;4.32;1.40;;;;;;;21.23;52.06;97334.25;2082843;28;20657;-70
2022/08/06 06:55:30;;;;;;;12.27;1.58;;;;;;;21.57;50.67;97328.16;2085015;28;20251;-70
2022/08/06 06:56:54;;;;;;;4.65;2.03;;;;;;;21.52;51.22;97332.00;2081095;28;20197;-70
2022/08/06 07:17:18;;;;;;;5.35;1.17;;;;;;;22.26;48.44;97343.91;2099025;27;20553;-69
2022/08/06 07:18:41;;;;;;;5.57;1.30;;;;;;;22.39;48.05;97337.63;2086192;28;20207;-64
2022/08/06 07:19:58;;;;;;;3.40;1.40;;;;;;;22.29;47.85;97342.81;2084911;28;20241;-64
2022/08/06 07:21:02;;;;;;;6.63;1.75;;;;;;;21.73;49.24;97336.59;2082565;28;20198;-66
2022/08/06 07:22:04;;;;;;;7.07;1.65;;;;;;;22.05;48.79;97343.81;2085044;28;20238;-64
2022/08/06 07:23:08;;;;;;;5.40;1.58;;;;;;;22.34;48.53;97337.94;2087625;28;20581;-64
2022/08/06 07:24:33;;;;;;;4.78;1.30;;;;;;;22.46;47.80;97336.97;2090164;28;20543;-64
2022/08/06 07:25:44;;;;;;;5.57;1.23;;;;;;;22.83;47.19;97339.22;2080998;28;20235;-64
2022/08/06 07:26:57;;;;;;;5.20;1.20;;;;;;;23.20;46.88;97339.78;2089871;28;20199;-64
2022/08/06 07:27:59;;;;;;;4.05;1.25;;;;;;;23.19;46.45;97336.28;2086833;28;20749;-64
2022/08/06 07:29:03;;;;;;;9.20;2.17;;;;;;;23.07;46.19;97334.63;2087686;28;20682;-64
2022/08/06 07:30:06;;;;;;;8.95;1.45;;;;;;;22.82;47.23;97345.53;2090217;28;20196;-64
2022/08/06 07:31:10;;;;;;;4.80;1.50;;;;;;;23.04;46.57;97333.06;2090728;28;20200;-64
2022/08/06 07:32:14;;;;;;;7.95;1.40;;;;;;;23.03;46.58;97346.53;2073981;28;20202;-64
2022/08/06 07:33:35;;;;;;;3.65;1.50;;;;;;;23.02;46.35;97350.16;2086403;28;20200;-64
2022/08/06 07:34:56;;;;;;;4.25;1.40;;;;;;;23.24;45.94;97347.38;2083865;28;20681;-64
2022/08/06 07:36:00;;;;;;;4.00;1.45;;;;;;;23.52;45.08;97355.69;2084908;28;20198;-64
2022/08/06 07:37:03;;;;;;;7.10;1.45;;;;;;;22.73;46.78;97348.97;2084350;28;20219;-64
2022/08/06 07:38:18;;;;;;;6.63;2.70;;;;;;;22.81;46.34;97343.84;2083509;28;20757;-64
2022/08/06 07:39:39;;;;;;;6.80;1.73;;;;;;;22.64;46.58;97345.25;2086226;28;20194;-64
2022/08/06 07:40:52;;;;;;;6.82;1.63;;;;;;;23.05;45.74;97347.25;2085206;28;20529;-64
2022/08/06 07:41:59;;;;;;;4.65;1.08;;;;;;;23.31;45.71;97347.69;2084438;28;20624;-66
2022/08/06 07:43:26;;;;;;;4.43;1.30;;;;;;;23.36;45.32;97340.16;2081972;28;20274;-66
2022/08/06 08:06:25;;;;;;;4.15;1.00;;;;;;;23.38;44.62;97332.06;2085616;28;20560;-62
2022/08/06 08:07:28;;;;;;;3.65;1.70;;;;;;;23.58;44.25;97330.28;2080408;28;20218;-63
2022/08/06 08:08:59;;;;;;;5.20;1.50;;;;;;;23.18;44.44;97329.25;2070725;28;20203;-63
2022/08/06 08:10:01;;;;;;;8.45;2.47;;;;;;;23.58;43.84;97332.97;2068863;28;20553;-63
2022/08/06 08:11:06;;;;;;;3.95;1.42;;;;;;;23.60;43.58;97325.69;2072368;28;20263;-63
2022/08/06 08:12:11;;;;;;;5.07;1.40;;;;;;;23.57;43.56;97320.63;2072130;28;20202;-63
2022/08/06 08:13:34;;;;;;;4.75;1.40;;;;;;;23.69;43.64;97332.88;2075659;28;20228;-64
2022/08/06 08:14:46;;;;;;;3.90;1.30;;;;;;;23.55;43.86;97327.91;2076650;28;20229;-64
2022/08/06 08:15:51;;;;;;;7.75;1.30;;;;;;;23.75;42.78;97327.00;2072169;28;20233;-63
2022/08/06 08:16:53;;;;;;;6.85;1.30;;;;;;;23.91;42.87;97334.53;2073543;28;20201;-63
2022/08/06 08:17:54;;;;;;;3.00;1.17;;;;;;;23.98;42.02;97328.66;2071986;28;20217;-63
2022/08/06 08:18:59;;;;;;;10.48;1.50;;;;;;;23.90;42.36;97335.47;2074342;28;20202;-63
2022/08/06 08:20:10;;;;;;;8.10;1.35;;;;;;;24.28;41.90;97341.91;2072445;28;20288;-63
2022/08/06 08:21:21;;;;;;;6.50;1.35;;;;;;;24.23;41.31;97338.81;2075023;28;20197;-64
2022/08/06 08:22:23;;;;;;;8.32;1.23;;;;;;;24.21;41.24;97339.94;2074716;28;20218;-63
2022/08/06 08:23:26;;;;;;;7.28;1.45;;;;;;;24.26;40.98;97335.91;2072100;28;20206;-64
2022/08/06 08:24:42;;;;;;;2.30;1.30;;;;;;;24.22;41.24;97331.78;2073053;28;20249;-64
2022/08/06 08:25:57;;;;;;;3.75;1.42;;;;;;;24.32;41.34;97336.31;2070469;28;20513;-64
2022/08/06 08:26:59;;;;;;;5.35;1.60;;;;;;;24.29;41.41;97334.78;2070703;28;20202;-63
2022/08/06 08:28:21;;;;;;;4.35;1.73;;;;;;;23.85;42.37;97340.38;2071646;28;20422;-63
2022/08/06 08:29:22;;;;;;;6.85;1.30;;;;;;;23.93;42.30;97335.25;2074078;28;20209;-63
2022/08/06 08:30:31;;;;;;;6.38;1.33;;;;;;;24.04;41.51;97336.97;2073379;28;20256;-65
2022/08/06 08:31:33;;;;;;;3.85;1.30;;;;;;;24.14;41.55;97339.66;2074625;28;20203;-63
2022/08/06 08:32:38;;;;;;;6.97;1.33;;;;;;;23.42;42.43;97339.63;2075536;28;20407;-64
2022/08/06 08:51:02;;;;;;;3.05;1.23;;;;;;;25.04;39.84;97343.09;2100760;27;20553;-62
2022/08/06 08:52:07;;;;;;;5.45;1.70;;;;;;;25.24;39.27;97341.25;2103830;28;20244;-62
2022/08/06 08:53:14;;;;;;;2.78;1.20;;;;;;;24.56;40.54;97334.09;2096153;28;20584;-63
2022/08/06 08:54:40;;;;;;;4.55;1.30;;;;;;;23.77;41.28;97346.38;2091178;28;20200;-63
2022/08/06 08:55:43;;;;;;;8.27;1.98;;;;;;;24.31;40.14;97339.97;2088451;28;20259;-63
2022/08/06 08:57:05;;;;;;;4.25;1.75;;;;;;;24.76;39.32;97342.97;2087789;28;20235;-63
2022/08/06 08:58:27;;;;;;;6.25;1.48;;;;;;;25.15;38.08;97331.41;2088109;28;20216;-63
2022/08/06 08:59:44;;;;;;;2.95;1.30;;;;;;;23.88;38.98;97336.59;2088853;28;20251;-63
2022/08/06 09:01:01;;;;;;;4.43;1.48;;;;;;;24.56;38.28;97346.59;2090941;28;20188;-63
2022/08/06 09:02:09;;;;;;;5.88;1.48;;;;;;;24.98;37.63;97348.19;2092827;28;20200;-62
2022/08/06 09:03:11;;;;;;;5.03;1.10;;;;;;;24.99;37.52;97340.00;2093567;28;20192;-63
2022/08/06 09:04:13;;;;;;;5.97;1.17;;;;;;;24.86;37.84;97340.31;2088185;28;20649;-63
2022/08/06 09:05:19;;;;;;;4.53;1.38;;;;;;;25.09;37.73;97353.38;2090458;28;20670;-63
2022/08/06 09:06:21;;;;;;;5.40;1.58;;;;;;;25.17;37.51;97349.97;2088829;28;20644;-63
2022/08/06 09:07:31;;;;;;;5.95;1.33;;;;;;;25.18;37.46;97341.81;2091982;28;20227;-62
2022/08/06 09:08:37;;;;;;;4.82;1.23;;;;;;;25.49;37.57;97344.28;2086999;28;20289;-63
2022/08/06 09:09:59;;;;;;;9.05;1.30;;;;;;;25.33;37.20;97339.53;2089691;28;20194;-63
2022/08/06 09:11:05;;;;;;;3.42;1.20;;;;;;;25.70;36.85;97351.25;2085622;28;20253;-63
2022/08/06 09:12:12;;;;;;;2.30;1.05;;;;;;;25.95;36.66;97351.56;2086652;28;20526;-63
2022/08/06 09:13:33;;;;;;;5.57;1.35;;;;;;;25.33;38.33;97346.69;2088637;28;20194;-63
2022/08/06 09:14:52;;;;;;;2.65;1.20;;;;;;;25.91;37.78;97356.38;2090538;28;20227;-62
2022/08/06 09:15:54;;;;;;;1.80;0.90;;;;;;;25.80;37.67;97353.88;2091488;28;20193;-63
2022/08/06 09:16:58;;;;;;;3.88;1.20;;;;;;;24.92;39.14;97353.09;2091645;28;20194;-62
2022/08/06 09:18:00;;;;;;;10.00;1.42;;;;;;;25.26;39.06;97352.59;2080087;28;20304;-63
2022/08/06 09:19:21;;;;;;;3.42;1.20;;;;;;;25.66;37.71;97361.41;2080470;28;20255;-63
2022/08/06 09:20:29;;;;;;;2.33;1.00;;;;;;;26.02;37.27;97358.84;2078374;28;20221;-63
2022/08/06 09:21:32;;;;;;;3.67;1.30;;;;;;;25.98;37.59;97364.63;2080767;28;20193;-62
2022/08/06 09:22:35;;;;;;;5.15;1.27;;;;;;;25.62;37.62;97357.31;2083864;28;20509;-62
2022/08/06 09:23:37;;;;;;;4.35;1.20;;;;;;;24.57;39.23;97357.13;2083130;28;20199;-62
2022/08/06 09:24:58;;;;;;;6.90;1.40;;;;;;;25.54;38.14;97360.72;2090656;28;20205;-63
2022/08/06 09:26:08;;;;;;;1.90;1.00;;;;;;;25.87;36.75;97365.69;2091691;28;20545;-65
2022/08/06 09:27:13;;;;;;;4.63;1.38;;;;;;;26.27;35.81;97366.34;2092358;28;20194;-65
2022/08/06 09:28:40;;;;;;;8.30;1.67;;;;;;;24.48;37.76;97368.66;2088021;28;20656;-65
2022/08/06 09:30:07;;;;;;;4.20;1.50;;;;;;;23.30;40.07;97365.50;2089065;28;20202;-65
2022/08/06 09:31:35;;;;;;;5.32;1.20;;;;;;;24.20;38.38;97356.94;2088594;28;20209;-65
2022/08/06 09:32:46;;;;;;;5.80;0.98;;;;;;;25.09;37.62;97356.88;2088882;28;20282;-64
2022/08/06 09:34:06;;;;;;;3.30;1.38;;;;;;;25.52;35.84;97356.53;2091619;28;20224;-65
2022/08/06 09:35:29;;;;;;;5.03;1.40;;;;;;;25.75;35.80;97359.69;2090086;28;20237;-65
2022/08/06 09:36:47;;;;;;;4.35;1.45;;;;;;;24.60;37.93;97361.34;2086597;28;20292;-65
2022/08/06 09:37:58;;;;;;;7.40;1.13;;;;;;;25.68;36.27;97359.41;2092859;28;20224;-66
2022/08/06 09:39:00;;;;;;;2.42;1.20;;;;;;;26.50;35.42;97356.91;2086246;28;20699;-64
2022/08/06 09:40:11;;;;;;;6.28;1.23;;;;;;;26.92;34.49;97363.53;2088796;28;20202;-64
2022/08/06 09:41:16;;;;;;;8.57;1.10;;;;;;;26.98;34.52;97362.06;2089855;28;20213;-65
2022/08/06 09:42:40;;;;;;;3.38;1.05;;;;;;;26.06;35.21;97354.09;2089952;28;20634;-64
2022/08/06 09:43:44;;;;;;;2.25;0.90;;;;;;;26.63;34.90;97358.38;2092562;28;20195;-65
2022/08/06 09:45:07;;;;;;;8.02;1.20;;;;;;;26.92;33.98;97358.16;2087522;28;20196;-64
2022/08/06 09:46:35;;;;;;;5.25;1.20;;;;;;;26.28;34.91;97347.47;2090887;28;20453;-64
2022/08/06 09:47:37;;;;;;;4.38;1.30;;;;;;;26.37;34.40;97359.09;2089081;28;20234;-65
2022/08/06 09:48:59;;;;;;;5.32;1.13;;;;;;;26.40;35.00;97358.81;2088249;28;20197;-64
2022/08/06 09:50:35;;;;;;;2.72;0.90;;;;;;;26.65;33.79;97354.56;2085438;28;20266;-64
2022/08/06 09:51:37;;;;;;;6.82;1.67;;;;;;;26.83;34.02;97351.91;2089056;28;20670;-65
2022/08/06 09:53:01;;;;;;;5.47;1.25;;;;;;;27.23;33.07;97346.19;2088843;28;20230;-65
2022/08/06 09:54:18;;;;;;;3.60;1.10;;;;;;;27.28;33.44;97366.13;2089849;28;20723;-64
2022/08/06 09:55:30;;;;;;;5.85;1.38;;;;;;;26.33;33.73;97357.72;2087185;28;20196;-64
2022/08/06 09:56:39;;;;;;;2.63;1.05;;;;;;;26.78;33.38;97354.19;2087418;28;20204;-64
2022/08/06 09:57:46;;;;;;;6.15;1.38;;;;;;;27.07;32.69;97357.59;2087269;28;20228;-64
2022/08/06 09:58:48;;;;;;;3.33;0.90;;;;;;;27.26;32.09;97367.28;2089385;28;20290;-63
2022/08/06 09:59:50;;;;;;;4.22;1.10;;;;;;;27.72;32.30;97364.44;2085540;28;20217;-62
2022/08/06 10:00:52;;;;;;;4.85;1.10;;;;;;;27.68;32.17;97361.22;2091262;28;20959;-62
2022/08/06 10:01:53;;;;;;;2.65;0.90;;;;;;;27.78;31.47;97361.09;2088342;28;20204;-62
2022/08/06 10:03:08;;;;;;;7.13;1.33;;;;;;;26.87;32.73;97358.63;2081570;28;20221;-62
2022/08/06 10:04:29;;;;;;;7.38;1.58;;;;;;;25.59;34.84;97358.47;2081420;28;20716;-63
2022/08/06 10:05:37;;;;;;;2.60;1.13;;;;;;;26.51;34.13;97357.75;2080855;28;20288;-63
2022/08/06 10:07:01;;;;;;;3.47;1.10;;;;;;;27.35;32.96;97363.66;2080662;28;20333;-63
2022/08/06 10:08:16;;;;;;;11.68;1.10;;;;;;;27.35;32.36;97360.97;2083145;28;20697;-62
2022/08/06 10:09:25;;;;;;;5.15;1.45;;;;;;;27.68;32.06;97364.75;2083419;28;20716;-63
2022/08/06 10:10:51;;;;;;;3.25;1.10;;;;;;;28.06;31.39;97363.59;2086340;28;20249;-62
2022/08/06 10:11:53;;;;;;;2.33;1.10;;;;;;;28.24;30.96;97366.19;2091086;28;20286;-63
2022/08/06 10:13:11;;;;;;;4.55;1.05;;;;;;;27.75;31.73;97375.69;2085758;28;20673;-63
2022/08/06 10:14:32;;;;;;;2.40;0.90;;;;;;;27.34;32.33;97370.06;2100060;28;20187;-63
2022/08/06 10:15:34;;;;;;;4.03;0.80;;;;;;;26.98;32.54;97367.41;2095593;28;20643;-63
2022/08/06 10:17:13;;;;;;;2.35;1.00;;;;;;;26.46;33.69;97374.28;2083149;28;20210;-64
2022/08/06 10:18:46;;;;;;;9.70;1.50;;;;;;;26.17;33.37;97367.25;2084739;28;20695;-63
2022/08/06 10:20:12;;;;;;;4.95;1.17;;;;;;;26.12;33.63;97361.53;2086586;28;20201;-63
2022/08/06 10:21:24;;;;;;;1.90;0.93;;;;;;;26.08;33.71;97357.47;2084367;28;20196;-63
2022/08/06 10:22:27;;;;;;;8.05;1.20;;;;;;;26.59;33.43;97360.50;2083321;28;20213;-63
2022/08/06 10:23:34;;;;;;;5.25;1.00;;;;;;;27.34;32.66;97362.00;2083828;28;20581;-63
2022/08/06 10:24:54;;;;;;;2.97;0.93;;;;;;;27.71;32.18;97360.91;2085507;28;20246;-63
2022/08/06 10:25:58;;;;;;;7.40;0.90;;;;;;;27.49;31.59;97347.03;2080214;28;20195;-62
2022/08/06 10:27:10;;;;;;;4.72;1.08;;;;;;;27.99;31.64;97360.72;2079275;28;20196;-63
2022/08/06 10:28:27;;;;;;;5.90;1.48;;;;;;;28.20;30.54;97357.63;2082519;28;20296;-63
2022/08/06 10:29:30;;;;;;;4.30;1.30;;;;;;;27.19;32.56;97354.50;2086063;28;20240;-62
2022/08/06 10:30:37;;;;;;;2.47;1.30;;;;;;;26.00;33.07;97357.31;2090482;28;20751;-63
2022/08/06 10:31:39;;;;;;;2.47;1.00;;;;;;;25.19;35.24;97358.69;2093648;28;20215;-63
2022/08/06 10:32:54;;;;;;;2.80;1.10;;;;;;;25.06;34.61;97362.47;2081296;28;20287;-63
2022/08/06 10:34:10;;;;;;;3.53;1.00;;;;;;;26.33;33.93;97361.22;2078975;28;20199;-62
2022/08/06 10:35:16;;;;;;;3.28;1.00;;;;;;;26.64;32.34;97350.19;2080243;28;20221;-62
2022/08/06 10:36:26;;;;;;;3.72;1.10;;;;;;;25.25;34.04;97350.94;2081626;28;20227;-62
2022/08/06 10:37:37;;;;;;;3.97;1.25;;;;;;;25.39;33.65;97359.50;2083846;28;20225;-62
2022/08/06 10:38:53;;;;;;;4.38;1.00;;;;;;;25.44;34.07;97354.56;2088239;28;20214;-62
2022/08/06 10:39:58;;;;;;;5.88;1.00;;;;;;;26.65;32.39;97353.69;2087542;28;20424;-63
2022/08/06 10:41:12;;;;;;;3.63;1.00;;;;;;;27.41;31.37;97360.38;2082698;28;20191;-63
2022/08/06 10:42:33;;;;;;;4.13;1.10;;;;;;;24.58;35.75;97358.81;2075546;28;20223;-62
2022/08/06 10:43:37;;;;;;;6.00;0.90;;;;;;;26.06;33.35;97360.25;2076542;28;20218;-62
2022/08/06 10:44:38;;;;;;;3.35;0.95;;;;;;;27.12;32.64;97368.69;2087143;28;20197;-62
2022/08/06 10:45:43;;;;;;;2.95;1.10;;;;;;;28.08;31.31;97362.44;2083088;28;20211;-62
2022/08/06 10:46:51;;;;;;;5.60;1.20;;;;;;;28.57;30.43;97355.53;2086990;28;20231;-62
2022/08/06 10:47:54;;;;;;;5.80;1.00;;;;;;;28.78;30.19;97361.28;2085204;28;20221;-63
2022/08/06 10:49:20;;;;;;;3.90;1.25;;;;;;;28.98;29.57;97363.69;2083268;28;20259;-62
2022/08/06 10:50:41;;;;;;;8.40;1.25;;;;;;;29.43;29.28;97370.41;2085566;28;20753;-62
2022/08/06 10:51:56;;;;;;;8.43;1.83;;;;;;;26.40;31.51;97348.09;2084130;28;20220;-62
2022/08/06 10:53:01;;;;;;;4.97;1.40;;;;;;;26.50;31.92;97356.91;2082060;28;20270;-62
2022/08/06 10:54:04;;;;;;;2.60;1.00;;;;;;;26.82;32.17;97355.56;2084082;28;20205;-63
2022/08/06 10:55:21;;;;;;;2.60;1.27;;;;;;;26.79;31.92;97352.34;2083773;28;20209;-62
2022/08/06 10:56:26;;;;;;;5.43;1.00;;;;;;;27.85;31.10;97352.25;2082895;28;20201;-62
2022/08/06 10:57:39;;;;;;;2.40;1.20;;;;;;;28.35;30.96;97349.78;2082701;28;20786;-63
2022/08/06 10:58:44;;;;;;;3.25;0.95;;;;;;;28.58;30.20;97349.16;2086012;28;20223;-62
2022/08/06 10:59:47;;;;;;;3.40;1.17;;;;;;;28.10;30.93;97355.09;2082330;28;20208;-63
2022/08/06 11:00:55;;;;;;;5.82;1.17;;;;;;;27.78;31.23;97356.59;2082425;28;20656;-63
2022/08/06 11:02:22;;;;;;;4.82;1.00;;;;;;;28.21;30.93;97351.25;2082771;28;20224;-63
2022/08/06 11:04:06;;;;;;;3.83;1.00;;;;;;;28.70;29.55;97358.63;2085387;28;20236;-63
2022/08/06 11:05:18;;;;;;;2.70;1.00;;;;;;;27.70;31.32;97361.91;2073469;28;20626;-63
2022/08/06 11:07:09;;;;;;;4.72;1.00;;;;;;;27.72;31.09;97351.88;2084513;28;20236;-63
2022/08/06 11:08:29;;;;;;;3.85;0.70;;;;;;;28.74;29.00;97354.56;2086239;28;20569;-62
2022/08/06 11:10:07;;;;;;;2.40;1.00;;;;;;;27.59;31.21;97354.13;2083547;28;20200;-63
2022/08/06 11:11:18;;;;;;;6.93;1.00;;;;;;;27.78;30.41;97339.66;2084066;28;20204;-65
2022/08/06 11:12:42;;;;;;;3.38;1.00;;;;;;;28.90;29.11;97342.16;2083150;28;20220;-64
2022/08/06 11:14:00;;;;;;;4.32;1.00;;;;;;;29.91;28.29;97351.63;2085284;28;20296;-64
2022/08/06 11:15:05;;;;;;;5.13;0.90;;;;;;;30.55;27.90;97347.13;2083318;28;20240;-64
2022/08/06 11:16:08;;;;;;;2.30;0.90;;;;;;;30.19;27.73;97342.25;2084439;28;20234;-64
2022/08/06 11:17:10;;;;;;;2.67;0.80;;;;;;;30.54;27.63;97340.06;2082764;28;20331;-64
2022/08/06 11:18:12;;;;;;;2.15;0.80;;;;;;;31.05;27.41;97347.59;2084027;28;20205;-64
2022/08/06 11:19:39;;;;;;;3.90;1.10;;;;;;;31.17;26.18;97339.94;2084540;28;20428;-64
2022/08/06 11:20:59;;;;;;;2.53;0.90;;;;;;;30.50;26.59;97336.91;2082079;28;20201;-64
2022/08/06 11:22:02;;;;;;;2.37;1.00;;;;;;;30.64;27.18;97342.50;2083885;28;20435;-64
2022/08/06 11:23:11;;;;;;;5.50;0.93;;;;;;;31.01;26.46;97338.19;2084556;28;20559;-63
2022/08/06 11:24:33;;;;;;;4.10;1.17;;;;;;;30.68;26.78;97341.13;2082455;28;20495;-64
2022/08/06 11:25:51;;;;;;;4.20;0.80;;;;;;;31.24;26.61;97340.88;2083398;28;20434;-66
2022/08/06 11:26:53;;;;;;;3.07;1.00;;;;;;;31.41;26.11;97346.94;2082474;28;20438;-65
2022/08/06 11:28:04;;;;;;;4.93;1.10;;;;;;;31.41;25.82;97350.50;2081649;28;20474;-65
2022/08/06 11:29:07;;;;;;;7.30;1.10;;;;;;;31.88;25.08;97342.25;2082646;28;20423;-63
2022/08/06 11:30:10;;;;;;;3.40;0.90;;;;;;;30.08;26.94;97338.09;2085845;28;21133;-64
2022/08/06 11:31:36;;;;;;;1.73;0.90;;;;;;;28.11;29.46;97337.13;2084795;28;20524;-64
2022/08/06 11:32:46;;;;;;;3.80;1.00;;;;;;;29.73;27.70;97332.16;2085246;28;20556;-63
2022/08/06 11:33:47;;;;;;;2.50;1.20;;;;;;;28.88;28.27;97336.13;2083949;28;20441;-63
2022/08/06 11:34:48;;;;;;;2.90;1.10;;;;;;;29.06;28.51;97333.25;2082941;28;20433;-66
2022/08/06 11:35:53;;;;;;;1.55;0.95;;;;;;;25.29;32.45;97329.28;2082752;28;20202;-62
2022/08/06 11:36:59;;;;;;;4.15;1.02;;;;;;;25.78;32.94;97321.94;2083840;28;20757;-61
2022/08/06 11:38:46;;;;;;;5.15;1.20;;;;;;;25.66;32.96;97325.78;2082761;28;20788;-62
2022/08/06 11:40:07;;;;;;;1.98;1.10;;;;;;;24.46;34.82;97312.72;2084119;28;20208;-61
2022/08/06 11:41:14;;;;;;;4.68;1.10;;;;;;;24.21;35.12;97314.09;2085199;28;20200;-62
2022/08/06 11:42:41;;;;;;;1.85;1.08;;;;;;;23.09;37.18;97312.22;2078591;28;20709;-62
2022/08/06 11:43:51;;;;;;;3.17;1.23;;;;;;;25.06;34.61;97321.59;2084265;28;20221;-62
2022/08/06 11:45:04;;;;;;;1.92;0.80;;;;;;;27.23;31.45;97330.09;2086433;28;20240;-62
2022/08/06 11:46:30;;;;;;;2.83;1.00;;;;;;;28.31;29.85;97313.53;2084439;28;20232;-62
2022/08/06 11:48:08;;;;;;;7.53;1.15;;;;;;;28.66;29.29;97306.19;2083244;28;20216;-62
2022/08/06 11:49:38;;;;;;;4.65;1.13;;;;;;;27.47;31.00;97308.81;2075288;28;20207;-62
2022/08/06 11:50:44;;;;;;;6.57;1.10;;;;;;;28.55;29.96;97317.28;2080354;28;20450;-62
2022/08/06 11:51:58;;;;;;;3.47;1.00;;;;;;;29.07;28.24;97314.28;2084778;28;20205;-62
2022/08/06 11:53:07;;;;;;;2.30;0.95;;;;;;;29.86;27.70;97310.91;2081380;28;20255;-61
2022/08/06 11:54:15;;;;;;;2.33;1.20;;;;;;;30.12;27.64;97309.81;2083648;28;20227;-61
2022/08/06 11:55:16;;;;;;;9.90;0.98;;;;;;;30.43;27.00;97304.38;2078846;28;20657;-61
2022/08/06 11:56:25;;;;;;;8.80;1.00;;;;;;;29.52;28.11;97306.66;2078258;28;20858;-62
2022/08/06 11:57:28;;;;;;;1.55;0.80;;;;;;;29.41;27.83;97305.19;2082070;28;20677;-61
2022/08/06 11:58:46;;;;;;;2.42;0.90;;;;;;;30.12;28.00;97310.66;2081914;28;20287;-61
2022/08/06 11:59:54;;;;;;;4.20;1.27;;;;;;;27.40;30.17;97305.13;2082387;28;20210;-61
2022/08/06 12:00:58;;;;;;;4.35;1.20;;;;;;;25.51;33.23;97301.38;2083397;28;20582;-61
2022/08/06 12:02:07;;;;;;;3.67;1.40;;;;;;;26.18;32.53;97294.03;2079175;28;20193;-61
2022/08/06 12:03:12;;;;;;;3.25;1.00;;;;;;;26.96;31.65;97299.75;2079088;28;20202;-61
2022/08/06 12:04:34;;;;;;;6.43;1.20;;;;;;;28.60;29.48;97298.81;2082208;28;20208;-61
2022/08/06 12:05:38;;;;;;;2.53;1.00;;;;;;;29.75;27.64;97297.81;2081190;28;20203;-61
2022/08/06 12:07:27;;;;;;;2.83;1.00;;;;;;;28.94;28.71;97293.28;2081265;28;20196;-61
2022/08/06 12:08:33;;;;;;;5.20;0.90;;;;;;;29.98;27.66;97308.72;2078092;28;20222;-61
2022/08/06 12:09:45;;;;;;;6.65;0.80;;;;;;;30.06;27.40;97302.44;2083776;28;20251;-61
2022/08/06 12:11:24;;;;;;;4.30;1.15;;;;;;;25.40;32.78;97305.91;2083927;28;20331;-61
2022/08/06 12:12:28;;;;;;;3.33;1.20;;;;;;;25.69;32.93;97291.59;2082025;28;20232;-61
2022/08/06 12:13:39;;;;;;;4.43;1.10;;;;;;;27.99;30.00;97304.34;2084467;28;20219;-61
2022/08/06 12:15:03;;;;;;;4.95;1.23;;;;;;;28.02;29.06;97293.28;2083161;28;20289;-62
2022/08/06 12:16:33;;;;;;;5.05;1.35;;;;;;;29.32;28.47;97301.66;2081615;28;20197;-61
2022/08/06 12:17:35;;;;;;;6.78;0.85;;;;;;;30.15;27.41;97296.00;2080182;28;20233;-61
2022/08/06 12:18:56;;;;;;;6.57;1.33;;;;;;;28.00;29.79;97296.13;2078297;28;20198;-61
2022/08/06 12:20:00;;;;;;;6.03;1.00;;;;;;;29.15;28.36;97295.47;2080164;28;20228;-62
2022/08/06 12:21:09;;;;;;;5.88;1.13;;;;;;;29.83;27.88;97294.25;2081086;28;20193;-61
2022/08/06 12:22:16;;;;;;;3.05;1.23;;;;;;;30.71;27.07;97295.81;2078487;28;20204;-61
2022/08/06 12:23:22;;;;;;;2.65;0.90;;;;;;;31.39;26.33;97295.88;2080917;28;20194;-62
2022/08/06 12:24:45;;;;;;;3.47;1.17;;;;;;;31.46;25.91;97295.16;2084461;28;20205;-61
2022/08/06 12:26:06;;;;;;;3.80;0.90;;;;;;;31.67;25.71;97295.28;2083475;28;20680;-62
2022/08/06 12:27:11;;;;;;;5.13;1.05;;;;;;;31.96;25.58;97288.16;2083099;28;20325;-61
2022/08/06 12:28:17;;;;;;;5.88;1.23;;;;;;;31.54;25.92;97292.34;2083288;28;20196;-61
2022/08/06 12:29:19;;;;;;;4.60;1.03;;;;;;;30.03;26.94;97292.00;2083076;28;20254;-62
2022/08/06 12:30:45;;;;;;;4.30;1.10;;;;;;;30.63;26.68;97287.81;2084500;28;20430;-66
2022/08/06 12:31:49;;;;;;;4.63;1.00;;;;;;;31.64;26.03;97286.72;2083792;28;20438;-66
2022/08/06 12:33:01;;;;;;;1.95;1.13;;;;;;;29.63;28.20;97278.53;2082801;28;20713;-67
2022/08/06 12:34:03;;;;;;;3.33;0.90;;;;;;;29.70;27.31;97282.22;2083136;28;20213;-66
2022/08/06 12:35:12;;;;;;;6.20;0.85;;;;;;;30.53;27.18;97279.94;2082656;28;20435;-66
2022/08/06 12:36:13;;;;;;;3.53;0.90;;;;;;;31.52;26.25;97281.75;2084910;28;20257;-64
2022/08/06 12:37:34;;;;;;;7.30;0.90;;;;;;;31.85;24.62;97285.94;2083540;28;20465;-65
2022/08/06 12:38:59;;;;;;;3.93;1.10;;;;;;;32.21;24.68;97280.59;2080728;28;20435;-66
2022/08/06 12:41:32;;;;;;;5.07;1.37;;;;;;;29.57;27.82;97272.03;2083089;28;20600;-67
2022/08/06 12:42:47;;;;;;;5.03;1.20;;;;;;;31.04;26.32;97273.13;2083534;28;20863;-67
2022/08/06 12:43:55;;;;;;;3.50;1.50;;;;;;;30.44;26.50;97275.63;2083390;28;20430;-67
2022/08/06 12:44:58;;;;;;;6.83;1.20;;;;;;;26.72;30.52;97269.06;2081201;28;20423;-66
2022/08/06 12:46:04;;;;;;;3.77;1.30;;;;;;;27.53;30.28;97275.16;2079791;28;20454;-67
2022/08/06 12:47:20;;;;;;;2.83;1.27;;;;;;;27.18;30.55;97267.06;2082163;28;20442;-66
2022/08/06 12:48:47;;;;;;;4.25;1.10;;;;;;;26.85;31.16;97261.47;2082498;28;20984;-66
2022/08/06 12:49:49;;;;;;;2.40;1.13;;;;;;;26.87;31.15;97261.34;2082708;28;20659;-66
2022/08/06 12:51:11;;;;;;;1.48;0.80;;;;;;;28.93;29.06;97264.72;2080250;28;20253;-66
2022/08/06 12:52:20;;;;;;;6.75;1.10;;;;;;;29.03;28.58;97258.31;2088358;22;20278;-62
2022/08/06 12:53:31;;;;;;;2.33;0.90;;;;;;;30.44;27.19;97259.44;2057276;28;20282;-62
2022/08/06 12:54:33;;;;;;;5.72;1.10;;;;;;;31.21;26.35;97269.28;2053310;28;20196;-62
2022/08/06 12:55:46;;;;;;;2.50;1.20;;;;;;;30.59;26.96;97265.75;2050285;28;20200;-62
2022/08/06 12:56:57;;;;;;;4.97;1.30;;;;;;;30.00;27.28;97260.06;2053011;28;20452;-62
2022/08/06 12:58:00;;;;;;;3.40;1.30;;;;;;;29.73;27.17;97256.81;2050381;28;20571;-62
2022/08/06 12:59:10;;;;;;;1.95;0.98;;;;;;;28.42;28.68;97254.13;2051316;28;20606;-62
2022/08/06 13:00:32;;;;;;;5.20;1.00;;;;;;;29.16;28.22;97250.59;2049171;28;20775;-63
2022/08/06 13:01:36;;;;;;;4.05;0.90;;;;;;;30.16;26.64;97251.03;2050430;28;20211;-62
2022/08/06 13:02:58;;;;;;;6.10;1.25;;;;;;;30.31;26.55;97254.66;2049956;28;20363;-61
2022/08/06 13:04:04;;;;;;;5.53;1.10;;;;;;;31.15;26.08;97251.13;2051265;28;20286;-62
2022/08/06 13:05:09;;;;;;;3.17;1.08;;;;;;;31.74;25.68;97258.41;2047905;28;20788;-62
2022/08/06 13:06:16;;;;;;;2.50;1.00;;;;;;;31.92;25.17;97249.91;2048389;28;20200;-62
2022/08/06 13:07:37;;;;;;;2.57;1.13;;;;;;;32.07;25.34;97257.13;2047293;28;20461;-62
2022/08/06 13:08:48;;;;;;;3.63;0.90;;;;;;;30.79;26.08;97249.06;2048986;28;20432;-63
2022/08/06 13:09:53;;;;;;;2.10;0.90;;;;;;;31.42;25.72;97243.41;2048343;28;20446;-62
2022/08/06 13:11:14;;;;;;;6.57;1.20;;;;;;;30.39;26.98;97248.38;2050959;28;20468;-63
2022/08/06 13:12:19;;;;;;;3.97;1.03;;;;;;;31.06;25.81;97250.38;2051043;28;20427;-62
2022/08/06 13:13:46;;;;;;;9.33;1.23;;;;;;;30.83;26.02;97250.41;2048189;28;20426;-63
2022/08/06 13:15:15;;;;;;;8.10;1.10;;;;;;;31.67;25.45;97248.53;2048723;28;20438;-62